Sw Julia I — 3EDT2 — position and weather

sailwx.info

Track history (hours):
 
Tides and Currents Weather Stations Pressure Air Temp Water Temp Dewpoint Dewpoint Depression Visibility Wind Speed Wind Dir Waves Ship Positions

Sw Julia I

Last reported at 2017-Oct-03 13:53 UTC. Time now 2017-Nov-22 10:55 UTC.
Position N 29°26' W 094°50'.
Warning: this ship's position is 49 days out of date.

Length 176 m; draft 10.5 m.

Type: Ship. MMSI: 374125000.

Date/timePositionNaut miles runAvg speedWind from/ knotsBaromVisibWave heightAir tempDewpointWater temp
2017-Oct-03 13:53N 29°26' W 094°50'411.1
2017-Oct-03 13:30N 29°30' W 094°52'511.0
2017-Oct-03 13:00N 29°35' W 094°56'510.9
2017-Oct-03 12:30N 29°39' W 094°58'4 8.2
2017-Oct-03 12:00N 29°43' W 095°01'3 5.7
2017-Oct-03 11:30N 29°45' W 095°04'2 4.4
2017-Oct-03 11:00N 29°45' W 095°06'2 5.0
2017-Oct-03 10:30N 29°44' W 095°09'2 4.7
2017-Oct-03 10:00N 29°45' W 095°12'2 3.4
2017-Oct-03 09:30N 29°44' W 095°13'0 0.1
2017-Oct-03 08:46N 29°44' W 095°13'0 0.0
2017-Oct-03 08:28N 29°44' W 095°13'0 0.0
2017-Oct-03 07:58N 29°44' W 095°13'0 0.0
2017-Oct-03 07:10N 29°44' W 095°13'0 0.0
2017-Oct-03 06:55N 29°44' W 095°13'0 0.0
2017-Oct-03 06:19N 29°44' W 095°13'0 0.0
2017-Oct-03 05:55N 29°44' W 095°13'0 0.0
2017-Oct-03 05:04N 29°44' W 095°13'0 0.1
2017-Oct-03 04:58N 29°44' W 095°13'0 0.0
2017-Oct-03 04:19N 29°44' W 095°13'0 0.0
2017-Oct-03 03:01N 29°44' W 095°13'0 0.0
2017-Oct-03 02:52N 29°44' W 095°13'0 0.0
2017-Oct-03 02:28N 29°44' W 095°13'0 0.0
2017-Oct-03 01:58N 29°44' W 095°13'0 0.0
2017-Oct-02 04:43N 29°44' W 095°13'0 0.0
2017-Oct-02 04:25N 29°44' W 095°13'0 0.0
2017-Oct-02 03:07N 29°44' W 095°13'0 0.0
2017-Oct-02 02:43N 29°44' W 095°13'0 0.0
2017-Oct-02 02:25N 29°44' W 095°13'0 0.0
2017-Oct-02 01:01N 29°44' W 095°13'0 0.0
2017-Oct-02 00:49N 29°44' W 095°13'0 0.0
2017-Oct-02 00:25N 29°44' W 095°13'0 0.0
2017-Oct-01 23:49N 29°44' W 095°13'0 0.0
2017-Oct-01 23:22N 29°44' W 095°13'0 0.1
2017-Oct-01 23:00N 29°44' W 095°13'1 2.8
2017-Oct-01 22:30N 29°44' W 095°12'2 5.0
2017-Oct-01 22:01N 29°44' W 095°09'3 5.4
2017-Oct-01 21:30N 29°45' W 095°06'3 5.2
2017-Oct-01 21:00N 29°44' W 095°03'3 6.3
2017-Oct-01 20:30N 29°42' W 095°01'5 9.6
2017-Oct-01 20:00N 29°38' W 094°58'611.5
2017-Oct-01 19:30N 29°33' W 094°54'611.6
2017-Oct-01 19:00N 29°28' W 094°51'  
Track history (hours):
 
Tides and Currents Weather Stations Pressure Air Temp Water Temp Dewpoint Dewpoint Depression Visibility Wind Speed Wind Dir Waves Ship Positions

Sw Julia I

Last reported at 2017-Oct-03 13:53 UTC. Time now 2017-Nov-22 10:55 UTC.
Position N 29°26' W 094°50'.
Warning: this ship's position is 49 days out of date.

Length 176 m; draft 10.5 m.

Type: Ship. MMSI: 374125000.

Date/timePositionNaut miles runAvg speedWind from/ knotsBaromVisibWave heightAir tempDewpointWater temp
2017-Oct-03 13:53N 29°26' W 094°50'411.1
2017-Oct-03 13:30N 29°30' W 094°52'511.0
2017-Oct-03 13:00N 29°35' W 094°56'510.9
2017-Oct-03 12:30N 29°39' W 094°58'4 8.2
2017-Oct-03 12:00N 29°43' W 095°01'3 5.7
2017-Oct-03 11:30N 29°45' W 095°04'2 4.4
2017-Oct-03 11:00N 29°45' W 095°06'2 5.0
2017-Oct-03 10:30N 29°44' W 095°09'2 4.7
2017-Oct-03 10:00N 29°45' W 095°12'2 3.4
2017-Oct-03 09:30N 29°44' W 095°13'0 0.1
2017-Oct-03 08:46N 29°44' W 095°13'0 0.0
2017-Oct-03 08:28N 29°44' W 095°13'0 0.0
2017-Oct-03 07:58N 29°44' W 095°13'0 0.0
2017-Oct-03 07:10N 29°44' W 095°13'0 0.0
2017-Oct-03 06:55N 29°44' W 095°13'0 0.0
2017-Oct-03 06:19N 29°44' W 095°13'0 0.0
2017-Oct-03 05:55N 29°44' W 095°13'0 0.0
2017-Oct-03 05:04N 29°44' W 095°13'0 0.1
2017-Oct-03 04:58N 29°44' W 095°13'0 0.0
2017-Oct-03 04:19N 29°44' W 095°13'0 0.0
2017-Oct-03 03:01N 29°44' W 095°13'0 0.0
2017-Oct-03 02:52N 29°44' W 095°13'0 0.0
2017-Oct-03 02:28N 29°44' W 095°13'0 0.0
2017-Oct-03 01:58N 29°44' W 095°13'0 0.0
2017-Oct-02 04:43N 29°44' W 095°13'0 0.0
2017-Oct-02 04:25N 29°44' W 095°13'0 0.0
2017-Oct-02 03:07N 29°44' W 095°13'0 0.0
2017-Oct-02 02:43N 29°44' W 095°13'0 0.0
2017-Oct-02 02:25N 29°44' W 095°13'0 0.0
2017-Oct-02 01:01N 29°44' W 095°13'0 0.0
2017-Oct-02 00:49N 29°44' W 095°13'0 0.0
2017-Oct-02 00:25N 29°44' W 095°13'0 0.0
2017-Oct-01 23:49N 29°44' W 095°13'0 0.0
2017-Oct-01 23:22N 29°44' W 095°13'0 0.1
2017-Oct-01 23:00N 29°44' W 095°13'1 2.8
2017-Oct-01 22:30N 29°44' W 095°12'2 5.0
2017-Oct-01 22:01N 29°44' W 095°09'3 5.4
2017-Oct-01 21:30N 29°45' W 095°06'3 5.2
2017-Oct-01 21:00N 29°44' W 095°03'3 6.3
2017-Oct-01 20:30N 29°42' W 095°01'5 9.6
2017-Oct-01 20:00N 29°38' W 094°58'611.5
2017-Oct-01 19:30N 29°33' W 094°54'611.6
2017-Oct-01 19:00N 29°28' W 094°51'  

Dump ship's entire track history